createdAt,value
2023-08-23T00:00:28.941Z,52.58
2023-08-23T00:02:56.768Z,52.61
2023-08-23T00:05:24.488Z,52.46
2023-08-23T00:07:52.177Z,52.38
2023-08-23T00:10:19.838Z,52.90
2023-08-23T00:12:54.258Z,53.07
2023-08-23T00:15:22.024Z,53.08
2023-08-23T00:17:50.002Z,53.18
2023-08-23T00:20:18.174Z,53.16
2023-08-23T00:25:20.016Z,53.41
2023-08-23T00:27:54.218Z,53.26
2023-08-23T00:30:29.249Z,53.43
2023-08-23T00:32:57.149Z,53.47
2023-08-23T00:35:24.856Z,53.73
2023-08-23T00:37:52.550Z,53.81
2023-08-23T00:40:20.687Z,53.78
2023-08-23T00:42:48.406Z,53.85
2023-08-23T00:45:16.197Z,53.92
2023-08-23T00:47:45.521Z,53.95
2023-08-23T00:50:13.544Z,54.03
2023-08-23T00:52:52.110Z,53.98
2023-08-23T00:55:21.070Z,53.92
2023-08-23T00:57:49.031Z,54.02
2023-08-23T01:00:17.608Z,54.10
2023-08-23T01:02:46.783Z,54.11
2023-08-23T01:05:14.507Z,54.07
2023-08-23T01:07:45.480Z,54.03
2023-08-23T01:10:16.363Z,54.24
2023-08-23T01:12:46.787Z,54.54
2023-08-23T01:15:14.451Z,54.36
2023-08-23T01:17:44.111Z,54.47
2023-08-23T01:20:13.987Z,54.56
2023-08-23T01:22:46.453Z,54.55
2023-08-23T01:25:15.532Z,54.66
2023-08-23T01:27:54.640Z,54.60
2023-08-23T01:30:23.984Z,54.58
2023-08-23T01:32:53.671Z,54.76
2023-08-23T01:35:23.147Z,54.70
2023-08-23T01:37:52.764Z,54.70
2023-08-23T01:40:21.927Z,54.76
2023-08-23T01:42:49.739Z,54.89
2023-08-23T01:45:17.526Z,54.80
2023-08-23T01:47:45.706Z,54.66
2023-08-23T01:50:13.686Z,54.64
2023-08-23T01:52:47.345Z,54.83
2023-08-23T01:55:18.631Z,55.02
2023-08-23T01:57:48.093Z,55.14
2023-08-23T02:00:16.565Z,55.10
2023-08-23T02:02:44.470Z,55.15
2023-08-23T02:05:12.172Z,55.00
2023-08-23T02:07:39.991Z,55.29
2023-08-23T02:10:08.473Z,55.34
2023-08-23T02:12:36.510Z,55.33
2023-08-23T02:15:06.476Z,55.40
2023-08-23T02:17:34.229Z,55.32
2023-08-23T02:20:01.887Z,55.25
2023-08-23T02:22:29.623Z,55.35
2023-08-23T02:24:57.485Z,55.41
2023-08-23T02:27:25.192Z,55.16
2023-08-23T02:29:53.083Z,55.31
2023-08-23T02:32:22.131Z,55.41
2023-08-23T02:34:49.839Z,55.46
2023-08-23T02:37:17.524Z,55.36
2023-08-23T02:39:45.345Z,55.61
2023-08-23T02:42:13.013Z,55.49
2023-08-23T02:44:40.912Z,55.56
2023-08-23T02:47:08.581Z,55.58
2023-08-23T02:49:37.833Z,55.59
2023-08-23T02:52:06.196Z,55.58
2023-08-23T02:54:33.926Z,55.75
2023-08-23T02:57:01.658Z,55.44
2023-08-23T02:59:30.177Z,55.70
2023-08-23T03:01:58.061Z,55.49
2023-08-23T03:04:25.968Z,55.85
2023-08-23T03:06:54.941Z,56.00
2023-08-23T03:09:22.683Z,56.07
2023-08-23T03:11:50.357Z,56.10
2023-08-23T03:14:18.155Z,56.20
2023-08-23T03:16:45.829Z,56.04
2023-08-23T03:19:13.651Z,56.12
2023-08-23T03:21:41.310Z,56.11
2023-08-23T03:24:10.416Z,56.35
2023-08-23T03:26:38.129Z,56.38
2023-08-23T03:29:05.799Z,56.08
2023-08-23T03:31:33.605Z,56.10
2023-08-23T03:34:01.244Z,56.15
2023-08-23T03:36:28.992Z,56.22
2023-08-23T03:38:56.655Z,56.29
2023-08-23T03:41:25.822Z,56.34
2023-08-23T03:43:53.552Z,55.80
2023-08-23T03:46:24.966Z,56.11
2023-08-23T03:48:52.767Z,56.17
2023-08-23T03:51:20.442Z,56.43
2023-08-23T03:53:48.170Z,56.34
2023-08-23T03:56:15.839Z,56.32
2023-08-23T03:58:44.990Z,56.54
2023-08-23T04:01:12.775Z,56.22
2023-08-23T04:03:40.838Z,56.55
2023-08-23T04:06:08.809Z,56.35
2023-08-23T04:08:40.858Z,56.23
2023-08-23T04:11:08.569Z,56.32
2023-08-23T04:13:36.841Z,56.45
2023-08-23T04:16:06.055Z,56.21
2023-08-23T04:18:33.892Z,56.55
2023-08-23T04:21:01.659Z,56.42
2023-08-23T04:23:29.446Z,56.42
2023-08-23T04:25:57.338Z,56.53
2023-08-23T04:28:25.013Z,56.42
2023-08-23T04:30:52.814Z,56.46
2023-08-23T04:33:21.816Z,56.36
2023-08-23T04:35:49.653Z,56.63
2023-08-23T04:38:17.333Z,56.33
2023-08-23T04:40:45.107Z,56.38
2023-08-23T04:43:12.858Z,56.65
2023-08-23T04:45:40.779Z,56.46
2023-08-23T04:48:10.072Z,56.52
2023-08-23T04:50:39.359Z,56.41
2023-08-23T04:53:07.003Z,56.44
2023-08-23T04:55:35.755Z,56.73
2023-08-23T04:58:03.448Z,56.37
2023-08-23T05:00:31.510Z,56.55
2023-08-23T05:02:59.202Z,56.29
2023-08-23T05:05:27.093Z,56.34
2023-08-23T05:07:56.229Z,56.24
2023-08-23T05:10:23.994Z,56.19
2023-08-23T05:12:53.159Z,56.44
2023-08-23T05:15:20.978Z,56.28
2023-08-23T05:17:48.922Z,56.30
2023-08-23T05:20:18.901Z,55.92
2023-08-23T05:22:46.555Z,55.79
2023-08-23T05:25:15.664Z,56.00
2023-08-23T05:27:43.758Z,56.00
2023-08-23T05:30:12.049Z,56.18
2023-08-23T05:32:39.880Z,56.15
2023-08-23T05:35:09.032Z,56.08
2023-08-23T05:37:36.917Z,55.68
2023-08-23T05:40:05.770Z,55.85
2023-08-23T05:42:36.552Z,55.75
2023-08-23T05:45:04.595Z,55.47
2023-08-23T05:47:35.115Z,55.56
2023-08-23T05:50:03.193Z,55.39
2023-08-23T05:52:31.218Z,55.22
2023-08-23T05:54:58.936Z,55.44
2023-08-23T05:57:26.827Z,55.43
2023-08-23T05:59:56.104Z,54.70
2023-08-23T06:02:24.495Z,54.59
2023-08-23T06:04:52.463Z,54.56
2023-08-23T06:07:21.457Z,54.74
2023-08-23T06:09:49.483Z,54.39
2023-08-23T06:12:20.551Z,53.75
2023-08-23T06:14:51.672Z,53.71
2023-08-23T06:17:21.102Z,53.26
2023-08-23T06:19:52.227Z,52.85
2023-08-23T06:24:54.628Z,51.40
2023-08-23T06:27:22.395Z,50.91
2023-08-23T06:29:50.175Z,49.53
2023-08-23T06:32:18.503Z,48.99
2023-08-23T06:34:47.631Z,48.31
2023-08-23T06:37:15.782Z,48.02
2023-08-23T06:39:43.522Z,46.88
2023-08-23T06:42:11.286Z,46.35
2023-08-23T06:44:38.966Z,44.59
2023-08-23T06:47:06.775Z,43.55
2023-08-23T06:49:34.521Z,42.32
2023-08-23T06:52:03.729Z,40.63
2023-08-23T06:54:31.394Z,40.18
2023-08-23T06:56:59.180Z,39.48
2023-08-23T06:59:26.920Z,38.53
2023-08-23T07:01:54.781Z,37.96
2023-08-23T07:04:22.454Z,36.99
2023-08-23T07:06:50.324Z,36.26
2023-08-23T07:09:19.384Z,36.21
2023-08-23T07:11:47.101Z,35.83
2023-08-23T07:14:15.251Z,36.33
2023-08-23T07:16:43.047Z,35.02
2023-08-23T07:19:10.795Z,34.94
2023-08-23T07:21:38.601Z,34.34
2023-08-23T07:24:06.803Z,33.42
2023-08-23T07:26:36.230Z,33.00
2023-08-23T07:29:03.952Z,32.81
2023-08-23T07:31:31.695Z,32.37
2023-08-23T07:33:59.624Z,31.71
2023-08-23T07:36:29.299Z,31.33
2023-08-23T07:38:58.675Z,31.33
2023-08-23T07:41:26.547Z,30.51
2023-08-23T07:43:55.686Z,30.00
2023-08-23T07:46:25.395Z,29.71
2023-08-23T07:48:53.270Z,29.03
2023-08-23T07:51:20.994Z,28.32
2023-08-23T07:53:51.271Z,28.06
2023-08-23T07:56:19.746Z,27.35
2023-08-23T07:58:51.942Z,27.04
2023-08-23T08:01:20.991Z,26.86
2023-08-23T08:03:49.017Z,25.52
2023-08-23T08:06:16.877Z,24.69
2023-08-23T08:08:44.809Z,25.02
2023-08-23T08:11:13.362Z,24.65
2023-08-23T08:13:41.071Z,24.51
2023-08-23T08:16:09.072Z,24.68
2023-08-23T08:18:38.364Z,23.93
2023-08-23T08:21:06.484Z,22.43
2023-08-23T08:23:34.190Z,23.11
2023-08-23T08:26:01.882Z,22.42
2023-08-23T08:28:29.653Z,22.25
2023-08-23T08:30:57.516Z,22.17
2023-08-23T08:33:25.298Z,21.98
2023-08-23T08:35:54.361Z,20.21
2023-08-23T08:38:23.343Z,20.31
2023-08-23T08:40:51.273Z,19.86
2023-08-23T08:43:19.247Z,19.62
2023-08-23T08:45:47.188Z,19.59
2023-08-23T08:48:14.031Z,18.91
2023-08-23T08:50:42.014Z,18.96
2023-08-23T08:53:13.539Z,18.71
2023-08-23T08:55:41.229Z,17.84
2023-08-23T08:58:08.931Z,18.09
2023-08-23T09:00:36.660Z,18.07
2023-08-23T09:03:04.484Z,18.12
2023-08-23T09:05:32.284Z,18.36
2023-08-23T09:08:00.051Z,18.55
2023-08-23T09:10:32.549Z,18.63
2023-08-23T09:13:02.393Z,17.46
2023-08-23T09:15:30.478Z,16.72
2023-08-23T09:18:00.242Z,17.55
2023-08-23T09:20:28.097Z,16.64
2023-08-23T09:22:56.444Z,15.98
2023-08-23T09:25:24.679Z,15.50
2023-08-23T09:27:56.519Z,16.08
2023-08-23T09:30:24.915Z,15.72
2023-08-23T09:32:52.760Z,15.99
2023-08-23T09:35:20.949Z,16.08
2023-08-23T09:37:49.815Z,16.02
2023-08-23T09:40:21.578Z,17.52
2023-08-23T09:42:49.404Z,16.71
2023-08-23T09:45:19.610Z,15.44
2023-08-23T09:47:49.265Z,16.10
2023-08-23T09:50:18.813Z,15.83
2023-08-23T09:52:47.194Z,15.52
2023-08-23T09:55:15.819Z,15.20
2023-08-23T09:57:44.478Z,15.17
2023-08-23T10:00:13.253Z,14.77
2023-08-23T10:02:42.416Z,13.76
2023-08-23T10:05:12.822Z,13.75
2023-08-23T10:07:41.282Z,14.43
2023-08-23T10:10:10.187Z,13.69
2023-08-23T10:12:39.686Z,14.11
2023-08-23T10:15:09.502Z,13.46
2023-08-23T10:17:37.228Z,13.63
2023-08-23T10:20:07.902Z,13.59
2023-08-23T10:22:36.734Z,12.47
2023-08-23T10:25:15.635Z,12.78
2023-08-23T10:27:43.725Z,12.80
2023-08-23T10:30:20.734Z,12.36
2023-08-23T10:32:49.282Z,12.82
2023-08-23T10:35:34.476Z,11.82
2023-08-23T10:38:02.189Z,12.71
2023-08-23T10:40:30.274Z,12.49
2023-08-23T10:42:57.997Z,12.66
2023-08-23T10:45:26.933Z,12.42
2023-08-23T10:47:54.681Z,12.40
2023-08-23T10:50:22.589Z,12.76
2023-08-23T10:52:51.842Z,13.14
2023-08-23T10:55:19.899Z,12.37
2023-08-23T10:57:47.941Z,11.40
2023-08-23T11:00:17.855Z,11.78
2023-08-23T11:02:45.943Z,13.02
2023-08-23T11:05:13.709Z,12.57
2023-08-23T11:07:41.386Z,12.54
2023-08-23T11:10:12.441Z,11.66
2023-08-23T11:12:40.579Z,11.64
2023-08-23T11:15:09.328Z,11.22
2023-08-23T11:17:37.265Z,11.66
2023-08-23T11:20:05.748Z,13.46
2023-08-23T11:22:33.498Z,14.67
2023-08-23T11:25:02.411Z,14.36
2023-08-23T11:27:31.463Z,13.21
2023-08-23T11:30:00.345Z,12.50
2023-08-23T11:32:28.416Z,13.17
2023-08-23T11:34:56.701Z,12.35
2023-08-23T11:37:24.869Z,12.33
2023-08-23T11:39:58.922Z,11.95
2023-08-23T11:42:27.612Z,12.02
2023-08-23T11:44:57.352Z,12.22
2023-08-23T11:47:27.975Z,12.47
2023-08-23T11:49:55.893Z,12.79
2023-08-23T11:52:23.569Z,13.19
2023-08-23T11:54:52.388Z,15.05
2023-08-23T11:57:20.127Z,15.59
2023-08-23T11:59:48.655Z,16.67
2023-08-23T12:02:17.759Z,17.03
2023-08-23T12:04:45.559Z,18.02
2023-08-23T12:07:14.030Z,18.24
2023-08-23T12:09:41.771Z,18.52
2023-08-23T12:12:09.854Z,20.22
2023-08-23T12:14:38.231Z,20.24
2023-08-23T12:17:08.559Z,20.92
2023-08-23T12:19:38.143Z,21.54
2023-08-23T12:22:07.630Z,21.86
2023-08-23T12:24:35.745Z,22.72
2023-08-23T12:27:03.632Z,22.68
2023-08-23T12:29:31.489Z,23.03
2023-08-23T12:31:59.407Z,23.62
2023-08-23T12:34:27.269Z,24.57
2023-08-23T12:36:56.789Z,24.61
2023-08-23T12:39:24.521Z,24.11
2023-08-23T12:41:52.248Z,24.40
2023-08-23T12:44:20.022Z,24.81
2023-08-23T12:49:15.746Z,25.25
2023-08-23T12:51:44.872Z,25.09
2023-08-23T12:54:14.491Z,25.03
2023-08-23T12:56:42.571Z,25.24
2023-08-23T12:59:10.791Z,25.18
2023-08-23T13:01:38.632Z,25.58
2023-08-23T13:04:07.610Z,26.14
2023-08-23T13:06:35.407Z,25.93
2023-08-23T13:09:04.008Z,26.05
2023-08-23T13:11:33.290Z,26.71
2023-08-23T13:14:01.047Z,26.88
2023-08-23T13:16:28.725Z,26.99
2023-08-23T13:18:56.476Z,26.44
2023-08-23T13:21:24.435Z,27.17
2023-08-23T13:23:52.098Z,27.34
2023-08-23T13:26:19.826Z,27.07
2023-08-23T13:28:48.868Z,26.96
2023-08-23T13:31:18.302Z,26.67
2023-08-23T13:33:48.231Z,26.68
2023-08-23T13:36:16.104Z,26.68
2023-08-23T13:38:44.140Z,26.61
2023-08-23T13:41:13.184Z,26.85
2023-08-23T13:43:41.303Z,26.97
2023-08-23T13:46:11.213Z,27.22
2023-08-23T13:48:39.298Z,26.60
2023-08-23T13:51:10.774Z,26.65
2023-08-23T13:53:38.810Z,26.71
2023-08-23T13:56:06.723Z,26.40
2023-08-23T13:58:34.435Z,26.15
2023-08-23T14:01:02.245Z,26.48
2023-08-23T14:03:31.437Z,26.28
2023-08-23T14:05:59.615Z,26.90
2023-08-23T14:08:27.343Z,27.32
2023-08-23T14:10:55.119Z,26.41
2023-08-23T14:13:22.826Z,27.30
2023-08-23T14:15:51.025Z,26.89
2023-08-23T14:18:18.787Z,27.17
2023-08-23T14:20:48.968Z,27.22
2023-08-23T14:23:16.719Z,26.42
2023-08-23T14:25:44.508Z,26.98
2023-08-23T14:28:13.130Z,26.59
2023-08-23T14:30:42.851Z,26.82
2023-08-23T14:33:10.894Z,26.73
2023-08-23T14:35:38.621Z,26.76
2023-08-23T14:38:08.011Z,26.23
2023-08-23T14:40:35.762Z,26.73
2023-08-23T14:43:05.507Z,27.38
2023-08-23T14:45:33.177Z,26.84
2023-08-23T14:48:01.219Z,26.20
2023-08-23T14:50:31.238Z,25.82
2023-08-23T14:53:01.009Z,25.27
2023-08-23T14:55:31.306Z,25.67
2023-08-23T14:57:59.014Z,26.03
2023-08-23T15:00:29.408Z,25.64
2023-08-23T15:02:57.316Z,26.02
2023-08-23T15:05:25.198Z,25.69
2023-08-23T15:07:53.144Z,26.52
2023-08-23T15:10:21.074Z,26.04
2023-08-23T15:12:50.279Z,26.06
2023-08-23T15:15:18.198Z,25.96
2023-08-23T15:17:47.810Z,26.45
2023-08-23T15:20:16.914Z,26.73
2023-08-23T15:22:44.866Z,26.31
2023-08-23T15:25:12.697Z,26.81
2023-08-23T15:27:43.826Z,26.12
2023-08-23T15:30:14.394Z,26.67
2023-08-23T15:32:43.083Z,26.71
2023-08-23T15:35:11.734Z,25.83
2023-08-23T15:37:40.096Z,25.87
2023-08-23T15:40:11.567Z,26.71
2023-08-23T15:42:39.497Z,26.29
2023-08-23T15:45:08.527Z,26.37
2023-08-23T15:47:37.828Z,27.07
2023-08-23T15:50:06.633Z,27.14
2023-08-23T15:52:35.035Z,26.90
2023-08-23T15:55:03.974Z,26.71
2023-08-23T15:57:35.382Z,27.11
2023-08-23T16:00:04.959Z,27.23
2023-08-23T16:02:35.397Z,27.21
2023-08-23T16:05:04.897Z,27.41
2023-08-23T16:07:32.909Z,27.31
2023-08-23T16:10:00.738Z,27.36
2023-08-23T16:12:28.801Z,28.13
2023-08-23T16:14:56.737Z,28.00
2023-08-23T16:17:24.622Z,28.16
2023-08-23T16:19:52.750Z,28.16
2023-08-23T16:22:21.945Z,28.30
2023-08-23T16:24:50.864Z,28.61
2023-08-23T16:27:19.012Z,28.22
2023-08-23T16:29:46.898Z,28.43
2023-08-23T16:32:14.793Z,28.86
2023-08-23T16:34:43.930Z,29.27
2023-08-23T16:37:12.050Z,28.88
2023-08-23T16:39:41.333Z,29.33
2023-08-23T16:42:09.476Z,28.83
2023-08-23T16:44:37.252Z,28.96
2023-08-23T16:47:05.590Z,29.12
2023-08-23T16:49:33.240Z,28.15
2023-08-23T16:52:01.003Z,28.69
2023-08-23T16:54:28.767Z,28.46
2023-08-23T16:56:57.897Z,28.34
2023-08-23T16:59:25.538Z,28.48
2023-08-23T17:01:53.175Z,28.35
2023-08-23T17:04:22.928Z,28.95
2023-08-23T17:06:50.814Z,28.36
2023-08-23T17:09:18.553Z,28.84
2023-08-23T17:11:47.344Z,28.92
2023-08-23T17:14:16.567Z,28.95
2023-08-23T17:16:44.313Z,28.71
2023-08-23T17:19:12.169Z,28.17
2023-08-23T17:21:40.980Z,28.58
2023-08-23T17:24:08.785Z,28.22
2023-08-23T17:26:36.611Z,28.33
2023-08-23T17:29:04.449Z,28.29
2023-08-23T17:31:33.493Z,28.48
2023-08-23T17:34:01.211Z,28.17
2023-08-23T17:36:28.903Z,28.45
2023-08-23T17:38:56.788Z,28.33
2023-08-23T17:41:24.511Z,28.55
2023-08-23T17:43:52.302Z,28.67
2023-08-23T17:46:37.514Z,28.73
2023-08-23T17:49:05.534Z,29.25
2023-08-23T17:51:33.379Z,29.28
2023-08-23T17:54:01.616Z,29.67
2023-08-23T17:56:29.505Z,30.19
2023-08-23T17:58:57.250Z,29.99
2023-08-23T18:01:25.067Z,30.85
2023-08-23T18:03:54.149Z,31.04
2023-08-23T18:06:21.953Z,31.29
2023-08-23T18:08:49.679Z,31.28
2023-08-23T18:11:17.519Z,31.33
2023-08-23T18:13:45.366Z,31.69
2023-08-23T18:16:13.162Z,32.16
2023-08-23T18:18:41.237Z,31.77
2023-08-23T18:21:10.297Z,32.06
2023-08-23T18:23:38.011Z,32.66
2023-08-23T18:26:05.701Z,32.69
2023-08-23T18:28:33.349Z,32.55
2023-08-23T18:31:03.493Z,32.31
2023-08-23T18:33:36.001Z,33.13
2023-08-23T18:36:06.465Z,33.25
2023-08-23T18:38:38.908Z,33.90
2023-08-23T18:41:06.650Z,33.46
2023-08-23T18:43:34.426Z,34.24
2023-08-23T18:46:02.123Z,34.62
2023-08-23T18:48:29.899Z,34.24
2023-08-23T18:50:59.095Z,34.95
2023-08-23T18:53:27.318Z,34.46
2023-08-23T18:58:24.191Z,35.07
2023-08-23T19:00:51.834Z,34.67
2023-08-23T19:03:19.684Z,34.83
2023-08-23T19:05:47.877Z,35.71
2023-08-23T19:08:15.536Z,35.10
2023-08-23T19:10:43.200Z,35.63
2023-08-23T19:13:10.893Z,35.48
2023-08-23T19:15:40.101Z,36.64
2023-08-23T19:18:08.999Z,36.47
2023-08-23T19:20:37.693Z,36.42
2023-08-23T19:23:05.525Z,36.29
2023-08-23T19:25:33.326Z,36.52
2023-08-23T19:28:01.320Z,36.63
2023-08-23T19:30:28.960Z,36.75
2023-08-23T19:32:57.969Z,37.45
2023-08-23T19:35:40.247Z,37.86
2023-08-23T19:38:08.080Z,38.30
2023-08-23T19:40:35.897Z,38.42
2023-08-23T19:43:04.238Z,38.94
2023-08-23T19:45:31.893Z,39.03
2023-08-23T19:48:08.653Z,39.34
2023-08-23T19:50:48.512Z,39.23
2023-08-23T19:53:16.187Z,39.46
2023-08-23T19:55:44.110Z,39.46
2023-08-23T19:58:11.913Z,39.79
2023-08-23T20:00:39.559Z,39.97
2023-08-23T20:03:08.868Z,40.06
2023-08-23T20:05:36.555Z,40.18
2023-08-23T20:08:05.670Z,40.29
2023-08-23T20:10:33.429Z,39.98
2023-08-23T20:13:01.080Z,40.36
2023-08-23T20:15:29.648Z,40.94
2023-08-23T20:17:57.848Z,40.76
2023-08-23T20:20:27.072Z,40.75
2023-08-23T20:22:54.816Z,41.07
2023-08-23T20:25:24.334Z,41.55
2023-08-23T20:27:52.356Z,41.53
2023-08-23T20:30:21.259Z,41.46
2023-08-23T20:32:49.324Z,41.28
2023-08-23T20:35:16.957Z,41.89
2023-08-23T20:37:46.028Z,41.85
2023-08-23T20:40:14.613Z,41.54
2023-08-23T20:42:42.275Z,41.94
2023-08-23T20:45:10.540Z,41.99
2023-08-23T20:47:38.216Z,42.10
2023-08-23T20:50:07.054Z,41.74
2023-08-23T20:52:34.769Z,42.24
2023-08-23T20:55:04.935Z,42.72
2023-08-23T20:57:32.637Z,42.54
2023-08-23T21:00:00.289Z,42.69
2023-08-23T21:02:28.188Z,42.96
2023-08-23T21:04:55.996Z,42.92
2023-08-23T21:07:23.612Z,42.98
2023-08-23T21:09:51.269Z,43.11
2023-08-23T21:12:20.266Z,43.05
2023-08-23T21:14:48.615Z,42.84
2023-08-23T21:17:16.304Z,43.28
2023-08-23T21:19:43.949Z,43.23
2023-08-23T21:22:11.622Z,43.82
2023-08-23T21:24:39.270Z,43.63
2023-08-23T21:27:07.318Z,43.63
2023-08-23T21:29:36.467Z,44.16
2023-08-23T21:32:04.133Z,44.13
2023-08-23T21:34:31.931Z,44.04
2023-08-23T21:36:59.784Z,44.65
2023-08-23T21:39:27.488Z,44.49
2023-08-23T21:41:58.541Z,43.85
2023-08-23T21:44:26.286Z,44.15
2023-08-23T21:46:55.359Z,44.91
2023-08-23T21:49:23.453Z,44.67
2023-08-23T21:51:52.167Z,44.63
2023-08-23T21:54:19.801Z,44.68
2023-08-23T21:56:47.492Z,44.93
2023-08-23T21:59:15.246Z,45.52
2023-08-23T22:01:42.981Z,45.62
2023-08-23T22:04:12.060Z,45.00
2023-08-23T22:06:39.675Z,45.12
2023-08-23T22:09:07.434Z,45.19
2023-08-23T22:11:35.298Z,45.27
2023-08-23T22:14:02.942Z,45.49
2023-08-23T22:16:30.675Z,46.02
2023-08-23T22:18:58.403Z,45.77
2023-08-23T22:21:27.649Z,45.60
2023-08-23T22:23:55.340Z,46.28
2023-08-23T22:26:23.066Z,45.91
2023-08-23T22:28:50.852Z,45.60
2023-08-23T22:31:18.606Z,45.95
2023-08-23T22:33:46.526Z,45.82
2023-08-23T22:36:14.180Z,46.29
2023-08-23T22:38:44.479Z,46.23
2023-08-23T22:41:12.451Z,46.11
2023-08-23T22:43:40.130Z,46.47
2023-08-23T22:46:14.826Z,46.39
2023-08-23T22:48:50.497Z,46.58
2023-08-23T22:51:18.380Z,46.35
2023-08-23T22:53:47.541Z,47.21
2023-08-23T22:56:15.389Z,47.48
2023-08-23T22:58:43.006Z,47.52
2023-08-23T23:01:10.873Z,47.16
2023-08-23T23:03:39.000Z,47.15
2023-08-23T23:06:08.378Z,47.69
2023-08-23T23:08:36.476Z,47.76
2023-08-23T23:11:05.888Z,48.03
2023-08-23T23:13:34.692Z,47.59
2023-08-23T23:16:06.137Z,48.03
2023-08-23T23:18:35.450Z,47.58
2023-08-23T23:21:03.847Z,48.20
2023-08-23T23:23:31.534Z,48.35
2023-08-23T23:25:59.356Z,47.90
2023-08-23T23:28:28.403Z,48.36
2023-08-23T23:30:56.173Z,48.34
2023-08-23T23:33:26.929Z,48.35
2023-08-23T23:35:56.361Z,48.19
2023-08-23T23:38:25.965Z,48.28
2023-08-23T23:40:56.037Z,48.79
2023-08-23T23:43:23.864Z,48.82
2023-08-23T23:45:53.049Z,48.97
2023-08-23T23:48:20.881Z,48.55
2023-08-23T23:50:48.741Z,48.83
2023-08-23T23:53:16.592Z,48.93
2023-08-23T23:55:45.046Z,49.13
2023-08-23T23:58:12.857Z,48.68
